sensor_id;sensor_type;location;lat;lon;timestamp;P1;durP1;ratioP1;P2;durP2;ratioP2
33074;SDS011;19433;51.292;6.868;2022-07-22T00:00:22;1.17;;;1.03;;
33074;SDS011;19433;51.292;6.868;2022-07-22T00:02:47;0.80;;;0.80;;
33074;SDS011;19433;51.292;6.868;2022-07-22T00:05:13;1.00;;;0.90;;
33074;SDS011;19433;51.292;6.868;2022-07-22T00:07:38;1.37;;;1.27;;
33074;SDS011;19433;51.292;6.868;2022-07-22T00:10:04;1.30;;;1.20;;
33074;SDS011;19433;51.292;6.868;2022-07-22T00:12:32;1.00;;;1.00;;
33074;SDS011;19433;51.292;6.868;2022-07-22T00:14:57;1.60;;;0.97;;
33074;SDS011;19433;51.292;6.868;2022-07-22T00:17:22;1.10;;;0.97;;
33074;SDS011;19433;51.292;6.868;2022-07-22T00:19:47;1.30;;;1.00;;
33074;SDS011;19433;51.292;6.868;2022-07-22T00:22:13;1.10;;;1.07;;
33074;SDS011;19433;51.292;6.868;2022-07-22T00:24:38;1.60;;;1.17;;
33074;SDS011;19433;51.292;6.868;2022-07-22T00:27:03;1.20;;;0.90;;
33074;SDS011;19433;51.292;6.868;2022-07-22T00:29:29;1.87;;;1.00;;
33074;SDS011;19433;51.292;6.868;2022-07-22T00:31:54;1.47;;;1.37;;
33074;SDS011;19433;51.292;6.868;2022-07-22T00:34:19;1.80;;;1.40;;
33074;SDS011;19433;51.292;6.868;2022-07-22T00:36:45;1.20;;;1.03;;
33074;SDS011;19433;51.292;6.868;2022-07-22T00:39:10;1.07;;;0.97;;
33074;SDS011;19433;51.292;6.868;2022-07-22T00:41:35;1.90;;;1.70;;
33074;SDS011;19433;51.292;6.868;2022-07-22T00:44:02;2.13;;;1.70;;
33074;SDS011;19433;51.292;6.868;2022-07-22T00:46:31;1.50;;;1.30;;
33074;SDS011;19433;51.292;6.868;2022-07-22T00:48:58;2.07;;;1.73;;
33074;SDS011;19433;51.292;6.868;2022-07-22T00:51:24;1.53;;;1.43;;
33074;SDS011;19433;51.292;6.868;2022-07-22T00:53:51;1.53;;;1.43;;
33074;SDS011;19433;51.292;6.868;2022-07-22T00:56:17;1.77;;;1.63;;
33074;SDS011;19433;51.292;6.868;2022-07-22T00:58:43;1.67;;;1.40;;
33074;SDS011;19433;51.292;6.868;2022-07-22T01:01:10;1.73;;;1.63;;
33074;SDS011;19433;51.292;6.868;2022-07-22T01:03:35;1.30;;;1.20;;
33074;SDS011;19433;51.292;6.868;2022-07-22T01:06:01;1.80;;;1.70;;
33074;SDS011;19433;51.292;6.868;2022-07-22T01:08:26;1.53;;;1.43;;
33074;SDS011;19433;51.292;6.868;2022-07-22T01:10:52;1.80;;;1.67;;
33074;SDS011;19433;51.292;6.868;2022-07-22T01:13:17;1.50;;;1.40;;
33074;SDS011;19433;51.292;6.868;2022-07-22T01:15:42;1.47;;;1.37;;
33074;SDS011;19433;51.292;6.868;2022-07-22T01:18:08;2.17;;;1.97;;
33074;SDS011;19433;51.292;6.868;2022-07-22T01:20:34;2.37;;;1.77;;
33074;SDS011;19433;51.292;6.868;2022-07-22T01:23:00;3.17;;;1.63;;
33074;SDS011;19433;51.292;6.868;2022-07-22T01:25:25;2.07;;;1.57;;
33074;SDS011;19433;51.292;6.868;2022-07-22T01:27:50;1.63;;;1.53;;
33074;SDS011;19433;51.292;6.868;2022-07-22T01:30:16;2.50;;;1.60;;
33074;SDS011;19433;51.292;6.868;2022-07-22T01:32:42;1.40;;;1.10;;
33074;SDS011;19433;51.292;6.868;2022-07-22T01:35:07;2.00;;;1.80;;
33074;SDS011;19433;51.292;6.868;2022-07-22T01:37:33;1.20;;;1.10;;
33074;SDS011;19433;51.292;6.868;2022-07-22T01:39:59;1.90;;;1.80;;
33074;SDS011;19433;51.292;6.868;2022-07-22T01:42:24;2.63;;;1.33;;
33074;SDS011;19433;51.292;6.868;2022-07-22T01:44:49;2.07;;;1.97;;
33074;SDS011;19433;51.292;6.868;2022-07-22T01:47:15;1.40;;;1.30;;
33074;SDS011;19433;51.292;6.868;2022-07-22T01:49:40;1.83;;;1.33;;
33074;SDS011;19433;51.292;6.868;2022-07-22T01:52:06;1.90;;;1.60;;
33074;SDS011;19433;51.292;6.868;2022-07-22T01:54:31;1.53;;;1.20;;
33074;SDS011;19433;51.292;6.868;2022-07-22T01:56:56;1.37;;;1.27;;
33074;SDS011;19433;51.292;6.868;2022-07-22T01:59:22;2.07;;;1.40;;
33074;SDS011;19433;51.292;6.868;2022-07-22T02:01:47;1.80;;;1.53;;
33074;SDS011;19433;51.292;6.868;2022-07-22T02:04:12;2.07;;;1.50;;
33074;SDS011;19433;51.292;6.868;2022-07-22T02:06:38;1.60;;;1.20;;
33074;SDS011;19433;51.292;6.868;2022-07-22T02:09:04;2.00;;;1.50;;
33074;SDS011;19433;51.292;6.868;2022-07-22T02:11:30;3.70;;;1.93;;
33074;SDS011;19433;51.292;6.868;2022-07-22T02:13:56;1.83;;;1.43;;
33074;SDS011;19433;51.292;6.868;2022-07-22T02:16:21;0.90;;;0.77;;
33074;SDS011;19433;51.292;6.868;2022-07-22T02:18:47;3.00;;;1.70;;
33074;SDS011;19433;51.292;6.868;2022-07-22T02:21:12;2.57;;;1.40;;
33074;SDS011;19433;51.292;6.868;2022-07-22T02:23:38;1.93;;;1.53;;
33074;SDS011;19433;51.292;6.868;2022-07-22T02:26:03;2.53;;;1.00;;
33074;SDS011;19433;51.292;6.868;2022-07-22T02:28:28;1.57;;;1.47;;
33074;SDS011;19433;51.292;6.868;2022-07-22T02:30:54;1.60;;;1.40;;
33074;SDS011;19433;51.292;6.868;2022-07-22T02:33:19;2.27;;;1.57;;
33074;SDS011;19433;51.292;6.868;2022-07-22T02:35:44;2.70;;;1.10;;
33074;SDS011;19433;51.292;6.868;2022-07-22T02:38:10;2.27;;;1.77;;
33074;SDS011;19433;51.292;6.868;2022-07-22T02:40:35;1.37;;;1.27;;
33074;SDS011;19433;51.292;6.868;2022-07-22T02:43:01;1.33;;;1.23;;
33074;SDS011;19433;51.292;6.868;2022-07-22T02:45:26;1.30;;;1.20;;
33074;SDS011;19433;51.292;6.868;2022-07-22T02:47:52;2.00;;;1.53;;
33074;SDS011;19433;51.292;6.868;2022-07-22T02:50:19;2.03;;;1.67;;
33074;SDS011;19433;51.292;6.868;2022-07-22T02:52:46;2.00;;;1.80;;
33074;SDS011;19433;51.292;6.868;2022-07-22T02:55:11;1.60;;;1.00;;
33074;SDS011;19433;51.292;6.868;2022-07-22T02:57:37;3.03;;;1.10;;
33074;SDS011;19433;51.292;6.868;2022-07-22T03:00:03;1.60;;;1.50;;
33074;SDS011;19433;51.292;6.868;2022-07-22T03:02:29;1.33;;;1.00;;
33074;SDS011;19433;51.292;6.868;2022-07-22T03:04:55;1.07;;;0.97;;
33074;SDS011;19433;51.292;6.868;2022-07-22T03:07:20;2.00;;;1.00;;
33074;SDS011;19433;51.292;6.868;2022-07-22T03:09:45;0.70;;;0.70;;
33074;SDS011;19433;51.292;6.868;2022-07-22T03:12:11;1.00;;;0.90;;
33074;SDS011;19433;51.292;6.868;2022-07-22T03:14:36;1.17;;;1.00;;
33074;SDS011;19433;51.292;6.868;2022-07-22T03:17:01;1.30;;;0.93;;
33074;SDS011;19433;51.292;6.868;2022-07-22T03:19:27;0.90;;;0.90;;
33074;SDS011;19433;51.292;6.868;2022-07-22T03:21:52;0.80;;;0.70;;
33074;SDS011;19433;51.292;6.868;2022-07-22T03:24:17;1.77;;;1.10;;
33074;SDS011;19433;51.292;6.868;2022-07-22T03:26:43;0.73;;;0.73;;
33074;SDS011;19433;51.292;6.868;2022-07-22T03:29:08;1.10;;;0.87;;
33074;SDS011;19433;51.292;6.868;2022-07-22T03:31:33;1.40;;;1.30;;
33074;SDS011;19433;51.292;6.868;2022-07-22T03:33:59;0.90;;;0.80;;
33074;SDS011;19433;51.292;6.868;2022-07-22T03:36:25;0.93;;;0.80;;
33074;SDS011;19433;51.292;6.868;2022-07-22T03:38:51;0.80;;;0.77;;
33074;SDS011;19433;51.292;6.868;2022-07-22T03:41:17;1.00;;;0.80;;
33074;SDS011;19433;51.292;6.868;2022-07-22T03:43:42;0.97;;;0.90;;
33074;SDS011;19433;51.292;6.868;2022-07-22T03:46:07;0.90;;;0.90;;
33074;SDS011;19433;51.292;6.868;2022-07-22T03:48:34;1.90;;;1.07;;
33074;SDS011;19433;51.292;6.868;2022-07-22T03:50:59;1.97;;;0.93;;
33074;SDS011;19433;51.292;6.868;2022-07-22T03:53:25;1.33;;;0.87;;
33074;SDS011;19433;51.292;6.868;2022-07-22T03:55:50;0.60;;;0.60;;
33074;SDS011;19433;51.292;6.868;2022-07-22T03:58:16;0.70;;;0.70;;
33074;SDS011;19433;51.292;6.868;2022-07-22T04:00:43;0.60;;;0.60;;
33074;SDS011;19433;51.292;6.868;2022-07-22T04:03:08;0.60;;;0.60;;
33074;SDS011;19433;51.292;6.868;2022-07-22T04:05:33;0.70;;;0.60;;
33074;SDS011;19433;51.292;6.868;2022-07-22T04:07:59;2.23;;;0.80;;
33074;SDS011;19433;51.292;6.868;2022-07-22T04:10:24;0.90;;;0.57;;
33074;SDS011;19433;51.292;6.868;2022-07-22T04:12:49;0.60;;;0.60;;
33074;SDS011;19433;51.292;6.868;2022-07-22T04:15:15;0.80;;;0.80;;
33074;SDS011;19433;51.292;6.868;2022-07-22T04:17:40;2.70;;;0.70;;
33074;SDS011;19433;51.292;6.868;2022-07-22T04:20:05;0.83;;;0.80;;
33074;SDS011;19433;51.292;6.868;2022-07-22T04:22:31;0.73;;;0.70;;
33074;SDS011;19433;51.292;6.868;2022-07-22T04:24:57;1.17;;;0.90;;
33074;SDS011;19433;51.292;6.868;2022-07-22T04:27:22;0.83;;;0.80;;
33074;SDS011;19433;51.292;6.868;2022-07-22T04:29:48;1.00;;;1.00;;
33074;SDS011;19433;51.292;6.868;2022-07-22T04:32:14;0.70;;;0.70;;
33074;SDS011;19433;51.292;6.868;2022-07-22T04:34:39;0.70;;;0.70;;
33074;SDS011;19433;51.292;6.868;2022-07-22T04:37:04;0.70;;;0.70;;
33074;SDS011;19433;51.292;6.868;2022-07-22T04:39:30;0.70;;;0.70;;
33074;SDS011;19433;51.292;6.868;2022-07-22T04:41:56;0.87;;;0.60;;
33074;SDS011;19433;51.292;6.868;2022-07-22T04:44:21;1.60;;;0.90;;
33074;SDS011;19433;51.292;6.868;2022-07-22T04:46:46;0.90;;;0.70;;
33074;SDS011;19433;51.292;6.868;2022-07-22T04:49:12;0.60;;;0.60;;
33074;SDS011;19433;51.292;6.868;2022-07-22T04:51:37;0.70;;;0.60;;
33074;SDS011;19433;51.292;6.868;2022-07-22T04:54:02;0.60;;;0.60;;
33074;SDS011;19433;51.292;6.868;2022-07-22T04:56:28;1.07;;;0.67;;
33074;SDS011;19433;51.292;6.868;2022-07-22T04:58:53;0.97;;;0.60;;
33074;SDS011;19433;51.292;6.868;2022-07-22T05:01:18;0.67;;;0.67;;
33074;SDS011;19433;51.292;6.868;2022-07-22T05:03:44;0.60;;;0.60;;
33074;SDS011;19433;51.292;6.868;2022-07-22T05:06:09;1.47;;;1.03;;
33074;SDS011;19433;51.292;6.868;2022-07-22T05:08:35;0.97;;;0.77;;
33074;SDS011;19433;51.292;6.868;2022-07-22T05:11:01;1.23;;;0.80;;
33074;SDS011;19433;51.292;6.868;2022-07-22T05:13:26;0.70;;;0.70;;
33074;SDS011;19433;51.292;6.868;2022-07-22T05:15:52;0.60;;;0.60;;
33074;SDS011;19433;51.292;6.868;2022-07-22T05:18:17;0.63;;;0.63;;
33074;SDS011;19433;51.292;6.868;2022-07-22T05:20:43;1.03;;;0.70;;
33074;SDS011;19433;51.292;6.868;2022-07-22T05:23:09;1.10;;;0.70;;
33074;SDS011;19433;51.292;6.868;2022-07-22T05:25:34;0.60;;;0.60;;
33074;SDS011;19433;51.292;6.868;2022-07-22T05:28:00;0.60;;;0.50;;
33074;SDS011;19433;51.292;6.868;2022-07-22T05:30:25;3.90;;;1.20;;
33074;SDS011;19433;51.292;6.868;2022-07-22T05:32:50;0.60;;;0.60;;
33074;SDS011;19433;51.292;6.868;2022-07-22T05:35:16;2.73;;;0.90;;
33074;SDS011;19433;51.292;6.868;2022-07-22T05:37:42;0.77;;;0.77;;
33074;SDS011;19433;51.292;6.868;2022-07-22T05:40:07;0.70;;;0.67;;
33074;SDS011;19433;51.292;6.868;2022-07-22T05:42:33;0.70;;;0.70;;
33074;SDS011;19433;51.292;6.868;2022-07-22T05:44:58;0.80;;;0.80;;
33074;SDS011;19433;51.292;6.868;2022-07-22T05:47:24;0.70;;;0.70;;
33074;SDS011;19433;51.292;6.868;2022-07-22T05:49:49;0.80;;;0.77;;
33074;SDS011;19433;51.292;6.868;2022-07-22T05:52:14;0.93;;;0.87;;
33074;SDS011;19433;51.292;6.868;2022-07-22T05:54:39;0.60;;;0.60;;
33074;SDS011;19433;51.292;6.868;2022-07-22T05:57:05;2.20;;;0.80;;
33074;SDS011;19433;51.292;6.868;2022-07-22T05:59:34;0.73;;;0.73;;
33074;SDS011;19433;51.292;6.868;2022-07-22T06:02:00;0.90;;;0.80;;
33074;SDS011;19433;51.292;6.868;2022-07-22T06:04:25;0.90;;;0.73;;
33074;SDS011;19433;51.292;6.868;2022-07-22T06:06:50;0.77;;;0.77;;
33074;SDS011;19433;51.292;6.868;2022-07-22T06:09:16;1.10;;;0.80;;
33074;SDS011;19433;51.292;6.868;2022-07-22T06:11:41;1.53;;;0.83;;
33074;SDS011;19433;51.292;6.868;2022-07-22T06:14:06;0.77;;;0.77;;
33074;SDS011;19433;51.292;6.868;2022-07-22T06:16:31;0.97;;;0.70;;
33074;SDS011;19433;51.292;6.868;2022-07-22T06:18:57;0.50;;;0.50;;
33074;SDS011;19433;51.292;6.868;2022-07-22T06:21:23;2.93;;;0.60;;
33074;SDS011;19433;51.292;6.868;2022-07-22T06:23:48;0.60;;;0.60;;
33074;SDS011;19433;51.292;6.868;2022-07-22T06:26:13;0.63;;;0.63;;
33074;SDS011;19433;51.292;6.868;2022-07-22T06:28:39;0.93;;;0.83;;
33074;SDS011;19433;51.292;6.868;2022-07-22T06:31:04;1.20;;;0.73;;
33074;SDS011;19433;51.292;6.868;2022-07-22T06:33:29;1.20;;;0.87;;
33074;SDS011;19433;51.292;6.868;2022-07-22T06:35:55;0.50;;;0.50;;
33074;SDS011;19433;51.292;6.868;2022-07-22T06:38:20;1.00;;;0.90;;
33074;SDS011;19433;51.292;6.868;2022-07-22T06:40:45;1.00;;;0.80;;
33074;SDS011;19433;51.292;6.868;2022-07-22T06:43:10;0.80;;;0.80;;
33074;SDS011;19433;51.292;6.868;2022-07-22T06:45:36;0.80;;;0.80;;
33074;SDS011;19433;51.292;6.868;2022-07-22T06:48:01;0.83;;;0.77;;
33074;SDS011;19433;51.292;6.868;2022-07-22T06:50:27;0.80;;;0.70;;
33074;SDS011;19433;51.292;6.868;2022-07-22T06:52:52;1.10;;;0.90;;
33074;SDS011;19433;51.292;6.868;2022-07-22T06:55:18;0.70;;;0.70;;
33074;SDS011;19433;51.292;6.868;2022-07-22T06:57:43;0.83;;;0.80;;
33074;SDS011;19433;51.292;6.868;2022-07-22T07:00:09;0.70;;;0.70;;
33074;SDS011;19433;51.292;6.868;2022-07-22T07:02:35;3.27;;;1.40;;
33074;SDS011;19433;51.292;6.868;2022-07-22T07:05:00;1.10;;;0.73;;
33074;SDS011;19433;51.292;6.868;2022-07-22T07:07:25;2.20;;;0.80;;
33074;SDS011;19433;51.292;6.868;2022-07-22T07:09:51;0.70;;;0.70;;
33074;SDS011;19433;51.292;6.868;2022-07-22T07:12:16;0.80;;;0.70;;
33074;SDS011;19433;51.292;6.868;2022-07-22T07:14:42;1.33;;;0.83;;
33074;SDS011;19433;51.292;6.868;2022-07-22T07:17:07;1.60;;;1.13;;
33074;SDS011;19433;51.292;6.868;2022-07-22T07:19:32;1.37;;;1.27;;
33074;SDS011;19433;51.292;6.868;2022-07-22T07:21:57;0.90;;;0.90;;
33074;SDS011;19433;51.292;6.868;2022-07-22T07:24:23;1.00;;;1.00;;
33074;SDS011;19433;51.292;6.868;2022-07-22T07:26:48;2.10;;;1.10;;
33074;SDS011;19433;51.292;6.868;2022-07-22T07:29:13;1.17;;;1.10;;
33074;SDS011;19433;51.292;6.868;2022-07-22T07:31:39;0.93;;;0.90;;
33074;SDS011;19433;51.292;6.868;2022-07-22T07:34:04;0.90;;;0.90;;
33074;SDS011;19433;51.292;6.868;2022-07-22T07:36:29;1.23;;;1.13;;
33074;SDS011;19433;51.292;6.868;2022-07-22T07:38:54;1.00;;;1.00;;
33074;SDS011;19433;51.292;6.868;2022-07-22T07:41:20;0.93;;;0.93;;
33074;SDS011;19433;51.292;6.868;2022-07-22T07:43:45;1.13;;;0.93;;
33074;SDS011;19433;51.292;6.868;2022-07-22T07:46:10;0.97;;;0.97;;
33074;SDS011;19433;51.292;6.868;2022-07-22T07:48:36;1.60;;;1.27;;
33074;SDS011;19433;51.292;6.868;2022-07-22T07:51:01;1.47;;;1.37;;
33074;SDS011;19433;51.292;6.868;2022-07-22T07:53:27;1.00;;;0.90;;
33074;SDS011;19433;51.292;6.868;2022-07-22T07:55:52;1.03;;;1.03;;
33074;SDS011;19433;51.292;6.868;2022-07-22T07:58:17;0.70;;;0.70;;
33074;SDS011;19433;51.292;6.868;2022-07-22T08:00:43;1.27;;;1.00;;
33074;SDS011;19433;51.292;6.868;2022-07-22T08:03:09;0.80;;;0.80;;
33074;SDS011;19433;51.292;6.868;2022-07-22T08:05:35;3.17;;;1.17;;
33074;SDS011;19433;51.292;6.868;2022-07-22T08:08:01;1.07;;;0.93;;
33074;SDS011;19433;51.292;6.868;2022-07-22T08:10:26;0.80;;;0.80;;
33074;SDS011;19433;51.292;6.868;2022-07-22T08:12:52;1.23;;;1.13;;
33074;SDS011;19433;51.292;6.868;2022-07-22T08:15:19;1.10;;;1.00;;
33074;SDS011;19433;51.292;6.868;2022-07-22T08:17:44;2.50;;;1.10;;
33074;SDS011;19433;51.292;6.868;2022-07-22T08:20:09;1.20;;;1.10;;
33074;SDS011;19433;51.292;6.868;2022-07-22T08:22:35;1.23;;;1.00;;
33074;SDS011;19433;51.292;6.868;2022-07-22T08:25:00;0.80;;;0.80;;
33074;SDS011;19433;51.292;6.868;2022-07-22T08:27:26;1.03;;;0.90;;
33074;SDS011;19433;51.292;6.868;2022-07-22T08:29:51;2.00;;;1.00;;
33074;SDS011;19433;51.292;6.868;2022-07-22T08:32:17;1.20;;;1.10;;
33074;SDS011;19433;51.292;6.868;2022-07-22T08:34:43;1.23;;;1.10;;
33074;SDS011;19433;51.292;6.868;2022-07-22T08:37:08;2.20;;;1.30;;
33074;SDS011;19433;51.292;6.868;2022-07-22T08:39:33;1.03;;;1.00;;
33074;SDS011;19433;51.292;6.868;2022-07-22T08:41:59;1.97;;;1.53;;
33074;SDS011;19433;51.292;6.868;2022-07-22T08:44:27;0.70;;;0.70;;
33074;SDS011;19433;51.292;6.868;2022-07-22T08:46:54;1.40;;;1.30;;
33074;SDS011;19433;51.292;6.868;2022-07-22T08:49:20;1.17;;;1.03;;
33074;SDS011;19433;51.292;6.868;2022-07-22T08:51:45;1.87;;;0.93;;
33074;SDS011;19433;51.292;6.868;2022-07-22T08:54:11;1.17;;;1.10;;
33074;SDS011;19433;51.292;6.868;2022-07-22T08:56:36;3.00;;;1.90;;
33074;SDS011;19433;51.292;6.868;2022-07-22T08:59:03;1.23;;;1.13;;
33074;SDS011;19433;51.292;6.868;2022-07-22T09:01:28;1.50;;;1.13;;
33074;SDS011;19433;51.292;6.868;2022-07-22T09:03:55;1.63;;;1.27;;
33074;SDS011;19433;51.292;6.868;2022-07-22T09:06:22;1.10;;;1.00;;
33074;SDS011;19433;51.292;6.868;2022-07-22T09:08:59;1.33;;;1.07;;
33074;SDS011;19433;51.292;6.868;2022-07-22T09:11:27;4.50;;;1.57;;
33074;SDS011;19433;51.292;6.868;2022-07-22T09:13:53;1.27;;;1.13;;
33074;SDS011;19433;51.292;6.868;2022-07-22T09:19:08;2.63;;;1.53;;
33074;SDS011;19433;51.292;6.868;2022-07-22T09:21:37;4.10;;;2.23;;
33074;SDS011;19433;51.292;6.868;2022-07-22T09:24:06;2.10;;;1.50;;
33074;SDS011;19433;51.292;6.868;2022-07-22T09:26:36;2.27;;;1.67;;
33074;SDS011;19433;51.292;6.868;2022-07-22T09:29:03;2.10;;;1.50;;
33074;SDS011;19433;51.292;6.868;2022-07-22T09:31:30;1.60;;;1.50;;
33074;SDS011;19433;51.292;6.868;2022-07-22T09:34:00;3.80;;;1.90;;
33074;SDS011;19433;51.292;6.868;2022-07-22T09:36:27;2.00;;;1.67;;
33074;SDS011;19433;51.292;6.868;2022-07-22T09:38:53;3.00;;;1.93;;
33074;SDS011;19433;51.292;6.868;2022-07-22T09:41:19;4.30;;;2.20;;
33074;SDS011;19433;51.292;6.868;2022-07-22T09:43:44;2.70;;;2.23;;
33074;SDS011;19433;51.292;6.868;2022-07-22T09:46:10;1.87;;;1.40;;
33074;SDS011;19433;51.292;6.868;2022-07-22T09:48:39;4.00;;;2.40;;
33074;SDS011;19433;51.292;6.868;2022-07-22T09:51:05;4.53;;;2.90;;
33074;SDS011;19433;51.292;6.868;2022-07-22T09:53:31;3.43;;;2.47;;
33074;SDS011;19433;51.292;6.868;2022-07-22T09:55:58;6.60;;;2.20;;
33074;SDS011;19433;51.292;6.868;2022-07-22T09:58:25;2.67;;;1.97;;
33074;SDS011;19433;51.292;6.868;2022-07-22T10:00:52;3.43;;;2.13;;
33074;SDS011;19433;51.292;6.868;2022-07-22T10:03:24;3.40;;;3.03;;
33074;SDS011;19433;51.292;6.868;2022-07-22T10:05:52;4.10;;;2.33;;
33074;SDS011;19433;51.292;6.868;2022-07-22T10:08:18;5.27;;;2.33;;
33074;SDS011;19433;51.292;6.868;2022-07-22T10:10:44;3.20;;;2.00;;
33074;SDS011;19433;51.292;6.868;2022-07-22T10:13:10;3.83;;;2.60;;
33074;SDS011;19433;51.292;6.868;2022-07-22T10:15:36;6.70;;;2.63;;
33074;SDS011;19433;51.292;6.868;2022-07-22T10:18:04;3.27;;;2.40;;
33074;SDS011;19433;51.292;6.868;2022-07-22T10:20:38;6.17;;;3.43;;
33074;SDS011;19433;51.292;6.868;2022-07-22T10:23:07;2.13;;;1.93;;
33074;SDS011;19433;51.292;6.868;2022-07-22T10:25:50;7.07;;;4.10;;
33074;SDS011;19433;51.292;6.868;2022-07-22T10:28:23;4.70;;;3.00;;
33074;SDS011;19433;51.292;6.868;2022-07-22T10:30:52;5.33;;;3.23;;
33074;SDS011;19433;51.292;6.868;2022-07-22T10:33:19;3.90;;;3.37;;
33074;SDS011;19433;51.292;6.868;2022-07-22T10:35:52;3.53;;;2.97;;
33074;SDS011;19433;51.292;6.868;2022-07-22T10:38:21;5.17;;;3.33;;
33074;SDS011;19433;51.292;6.868;2022-07-22T10:40:51;4.73;;;3.23;;
33074;SDS011;19433;51.292;6.868;2022-07-22T10:43:31;4.73;;;3.80;;
33074;SDS011;19433;51.292;6.868;2022-07-22T10:46:11;5.07;;;2.93;;
33074;SDS011;19433;51.292;6.868;2022-07-22T10:59:13;5.20;;;3.70;;
33074;SDS011;19433;51.292;6.868;2022-07-22T11:01:41;5.87;;;3.40;;
33074;SDS011;19433;51.292;6.868;2022-07-22T11:04:15;4.30;;;3.60;;
33074;SDS011;19433;51.292;6.868;2022-07-22T11:06:42;6.17;;;3.40;;
33074;SDS011;19433;51.292;6.868;2022-07-22T11:09:09;5.60;;;3.97;;
33074;SDS011;19433;51.292;6.868;2022-07-22T11:11:39;3.77;;;3.00;;
33074;SDS011;19433;51.292;6.868;2022-07-22T11:16:38;7.17;;;4.07;;
33074;SDS011;19433;51.292;6.868;2022-07-22T11:19:03;5.53;;;3.47;;
33074;SDS011;19433;51.292;6.868;2022-07-22T11:21:29;3.73;;;3.33;;
33074;SDS011;19433;51.292;6.868;2022-07-22T11:23:57;3.63;;;3.27;;
33074;SDS011;19433;51.292;6.868;2022-07-22T11:26:43;3.63;;;3.10;;
33074;SDS011;19433;51.292;6.868;2022-07-22T11:32:05;4.60;;;3.53;;
33074;SDS011;19433;51.292;6.868;2022-07-22T11:34:32;4.30;;;3.60;;
33074;SDS011;19433;51.292;6.868;2022-07-22T11:37:00;4.50;;;3.97;;
33074;SDS011;19433;51.292;6.868;2022-07-22T11:39:26;5.43;;;3.80;;
33074;SDS011;19433;51.292;6.868;2022-07-22T11:41:53;4.03;;;3.63;;
33074;SDS011;19433;51.292;6.868;2022-07-22T11:44:20;3.90;;;3.10;;
33074;SDS011;19433;51.292;6.868;2022-07-22T11:46:47;4.30;;;3.30;;
33074;SDS011;19433;51.292;6.868;2022-07-22T11:49:14;3.50;;;3.17;;
33074;SDS011;19433;51.292;6.868;2022-07-22T11:51:41;3.83;;;3.17;;
33074;SDS011;19433;51.292;6.868;2022-07-22T11:54:06;4.93;;;4.03;;
33074;SDS011;19433;51.292;6.868;2022-07-22T11:56:32;4.50;;;3.50;;
33074;SDS011;19433;51.292;6.868;2022-07-22T11:58:58;3.97;;;3.37;;
33074;SDS011;19433;51.292;6.868;2022-07-22T12:01:27;3.43;;;3.13;;
33074;SDS011;19433;51.292;6.868;2022-07-22T12:03:54;4.47;;;2.63;;
33074;SDS011;19433;51.292;6.868;2022-07-22T12:06:24;5.40;;;3.73;;
33074;SDS011;19433;51.292;6.868;2022-07-22T12:08:52;5.27;;;3.40;;
33074;SDS011;19433;51.292;6.868;2022-07-22T12:11:21;3.80;;;3.07;;
33074;SDS011;19433;51.292;6.868;2022-07-22T12:13:49;4.73;;;4.17;;
33074;SDS011;19433;51.292;6.868;2022-07-22T12:16:20;4.90;;;3.60;;
33074;SDS011;19433;51.292;6.868;2022-07-22T12:18:55;3.60;;;3.30;;
33074;SDS011;19433;51.292;6.868;2022-07-22T12:21:21;6.60;;;4.20;;
33074;SDS011;19433;51.292;6.868;2022-07-22T12:34:10;5.07;;;4.67;;
33074;SDS011;19433;51.292;6.868;2022-07-22T12:36:35;6.03;;;5.23;;
33074;SDS011;19433;51.292;6.868;2022-07-22T12:39:12;5.30;;;4.87;;
33074;SDS011;19433;51.292;6.868;2022-07-22T12:41:49;5.23;;;4.73;;
33074;SDS011;19433;51.292;6.868;2022-07-22T12:44:20;4.97;;;4.47;;
33074;SDS011;19433;51.292;6.868;2022-07-22T12:46:48;6.90;;;5.10;;
33074;SDS011;19433;51.292;6.868;2022-07-22T12:49:17;4.67;;;4.27;;
33074;SDS011;19433;51.292;6.868;2022-07-22T12:54:33;4.73;;;4.30;;
33074;SDS011;19433;51.292;6.868;2022-07-22T12:57:00;6.20;;;5.33;;
33074;SDS011;19433;51.292;6.868;2022-07-22T12:59:25;5.60;;;4.10;;
33074;SDS011;19433;51.292;6.868;2022-07-22T13:01:51;5.60;;;4.57;;
33074;SDS011;19433;51.292;6.868;2022-07-22T13:04:17;6.17;;;5.03;;
33074;SDS011;19433;51.292;6.868;2022-07-22T13:06:42;5.30;;;4.70;;
33074;SDS011;19433;51.292;6.868;2022-07-22T13:09:08;4.87;;;4.23;;
33074;SDS011;19433;51.292;6.868;2022-07-22T13:11:33;4.53;;;3.93;;
33074;SDS011;19433;51.292;6.868;2022-07-22T13:14:04;5.57;;;5.07;;
33074;SDS011;19433;51.292;6.868;2022-07-22T13:16:32;7.57;;;4.83;;
33074;SDS011;19433;51.292;6.868;2022-07-22T13:18:58;5.10;;;4.10;;
33074;SDS011;19433;51.292;6.868;2022-07-22T13:21:23;4.20;;;3.80;;
33074;SDS011;19433;51.292;6.868;2022-07-22T13:23:49;4.33;;;4.00;;
33074;SDS011;19433;51.292;6.868;2022-07-22T13:26:14;4.17;;;3.77;;
33074;SDS011;19433;51.292;6.868;2022-07-22T13:28:39;4.83;;;4.27;;
33074;SDS011;19433;51.292;6.868;2022-07-22T13:31:04;4.10;;;3.53;;
33074;SDS011;19433;51.292;6.868;2022-07-22T13:33:30;3.73;;;3.43;;
33074;SDS011;19433;51.292;6.868;2022-07-22T13:35:55;4.70;;;4.30;;
33074;SDS011;19433;51.292;6.868;2022-07-22T13:38:20;5.23;;;4.47;;
33074;SDS011;19433;51.292;6.868;2022-07-22T13:40:46;4.80;;;4.40;;
33074;SDS011;19433;51.292;6.868;2022-07-22T13:43:20;4.70;;;4.23;;
33074;SDS011;19433;51.292;6.868;2022-07-22T13:45:47;5.20;;;4.03;;
33074;SDS011;19433;51.292;6.868;2022-07-22T13:48:13;3.47;;;3.17;;
33074;SDS011;19433;51.292;6.868;2022-07-22T13:50:39;3.23;;;2.30;;
33074;SDS011;19433;51.292;6.868;2022-07-22T13:53:04;2.47;;;2.27;;
33074;SDS011;19433;51.292;6.868;2022-07-22T13:55:29;2.70;;;2.60;;
33074;SDS011;19433;51.292;6.868;2022-07-22T13:57:55;4.10;;;2.93;;
33074;SDS011;19433;51.292;6.868;2022-07-22T14:00:22;3.07;;;2.80;;
33074;SDS011;19433;51.292;6.868;2022-07-22T14:02:48;3.70;;;2.23;;
33074;SDS011;19433;51.292;6.868;2022-07-22T14:05:13;3.20;;;2.77;;
33074;SDS011;19433;51.292;6.868;2022-07-22T14:07:39;2.67;;;2.40;;
33074;SDS011;19433;51.292;6.868;2022-07-22T14:10:05;2.77;;;2.57;;
33074;SDS011;19433;51.292;6.868;2022-07-22T14:12:31;3.90;;;2.90;;
33074;SDS011;19433;51.292;6.868;2022-07-22T14:14:56;4.47;;;2.73;;
33074;SDS011;19433;51.292;6.868;2022-07-22T14:17:22;2.70;;;2.50;;
33074;SDS011;19433;51.292;6.868;2022-07-22T14:19:47;3.23;;;2.50;;
33074;SDS011;19433;51.292;6.868;2022-07-22T14:22:12;3.63;;;3.30;;
33074;SDS011;19433;51.292;6.868;2022-07-22T14:24:38;3.50;;;2.97;;
33074;SDS011;19433;51.292;6.868;2022-07-22T14:27:03;3.37;;;3.10;;
33074;SDS011;19433;51.292;6.868;2022-07-22T14:29:28;2.73;;;2.53;;
33074;SDS011;19433;51.292;6.868;2022-07-22T14:31:54;3.50;;;2.90;;
33074;SDS011;19433;51.292;6.868;2022-07-22T14:34:19;4.07;;;2.23;;
33074;SDS011;19433;51.292;6.868;2022-07-22T14:36:44;2.50;;;2.30;;
33074;SDS011;19433;51.292;6.868;2022-07-22T14:39:10;3.30;;;3.00;;
33074;SDS011;19433;51.292;6.868;2022-07-22T14:41:35;2.57;;;2.37;;
33074;SDS011;19433;51.292;6.868;2022-07-22T14:44:01;2.33;;;2.00;;
33074;SDS011;19433;51.292;6.868;2022-07-22T14:46:26;2.97;;;2.20;;
33074;SDS011;19433;51.292;6.868;2022-07-22T14:48:51;3.47;;;2.43;;
33074;SDS011;19433;51.292;6.868;2022-07-22T14:51:20;2.10;;;2.00;;
33074;SDS011;19433;51.292;6.868;2022-07-22T14:53:46;3.10;;;2.60;;
33074;SDS011;19433;51.292;6.868;2022-07-22T14:56:11;3.20;;;2.90;;
33074;SDS011;19433;51.292;6.868;2022-07-22T14:58:37;2.13;;;1.93;;
33074;SDS011;19433;51.292;6.868;2022-07-22T15:01:02;2.60;;;2.40;;
33074;SDS011;19433;51.292;6.868;2022-07-22T15:03:27;2.60;;;2.40;;
33074;SDS011;19433;51.292;6.868;2022-07-22T15:05:52;2.40;;;1.87;;
33074;SDS011;19433;51.292;6.868;2022-07-22T15:08:18;2.17;;;2.00;;
33074;SDS011;19433;51.292;6.868;2022-07-22T15:10:43;2.50;;;2.20;;
33074;SDS011;19433;51.292;6.868;2022-07-22T15:13:09;2.50;;;2.30;;